X  Sluiten METAR luchtvaart weer gegevens      EHRD Rotterdam The Hague Airport
Temperatuur
17°C Temperatuur
16°C Dauwpunt
94% Vochtigheid



Wind
2 KM/U
1 MPH
0 M/S
1 KTS



10°
N
Huidig weer

Helder Helder
Luchtdruk 1017.95 (hPa) - 30.06 (inHg)
Zicht 6 (mijl) - 9.7 (km)
Vliegveld
Vliegveld code EHRD

Locatie : Rotterdam The Hague Airport
Afstand: 23 (km)

Metar:
EHRD 242325Z AUTO 01001KT 9999 NCD 17/16 Q1018 NOSIG

Tijd: 25-06-2024 01:25 CEST